sensor_id;sensor_type;location;lat;lon;timestamp;temperature;humidity
32600;DHT22;19277;51.778;7.912;2022-09-09T00:01:07;23.90;71.80
32600;DHT22;19277;51.778;7.912;2022-09-09T00:03:49;23.90;71.70
32600;DHT22;19277;51.778;7.912;2022-09-09T00:09:15;24.00;71.60
32600;DHT22;19277;51.778;7.912;2022-09-09T00:14:47;24.00;71.60
32600;DHT22;19277;51.778;7.912;2022-09-09T00:20:35;24.10;71.60
32600;DHT22;19277;51.778;7.912;2022-09-09T00:22:36;24.10;71.60
32600;DHT22;19277;51.778;7.912;2022-09-09T00:25:11;24.10;71.60
32600;DHT22;19277;51.778;7.912;2022-09-09T00:27:45;24.10;71.50
32600;DHT22;19277;51.778;7.912;2022-09-09T00:30:24;24.10;71.50
32600;DHT22;19277;51.778;7.912;2022-09-09T00:32:59;24.10;71.40
32600;DHT22;19277;51.778;7.912;2022-09-09T00:35:38;24.20;71.50
32600;DHT22;19277;51.778;7.912;2022-09-09T00:38:18;24.20;71.40
32600;DHT22;19277;51.778;7.912;2022-09-09T00:40:52;24.20;71.50
32600;DHT22;19277;51.778;7.912;2022-09-09T00:43:35;24.20;71.40
32600;DHT22;19277;51.778;7.912;2022-09-09T00:49:00;24.30;71.50
32600;DHT22;19277;51.778;7.912;2022-09-09T00:51:44;24.30;71.40
32600;DHT22;19277;51.778;7.912;2022-09-09T00:54:40;24.40;71.50
32600;DHT22;19277;51.778;7.912;2022-09-09T00:57:22;24.30;71.40
32600;DHT22;19277;51.778;7.912;2022-09-09T01:00:00;24.40;71.40
32600;DHT22;19277;51.778;7.912;2022-09-09T01:02:39;24.40;71.40
32600;DHT22;19277;51.778;7.912;2022-09-09T01:08:01;24.40;71.40
32600;DHT22;19277;51.778;7.912;2022-09-09T01:10:41;24.40;71.40
32600;DHT22;19277;51.778;7.912;2022-09-09T01:13:22;24.40;71.40
32600;DHT22;19277;51.778;7.912;2022-09-09T01:15:49;24.40;71.40
32600;DHT22;19277;51.778;7.912;2022-09-09T01:18:17;24.40;71.30
32600;DHT22;19277;51.778;7.912;2022-09-09T01:21:06;24.50;71.50
32600;DHT22;19277;51.778;7.912;2022-09-09T01:26:35;24.50;71.40
32600;DHT22;19277;51.778;7.912;2022-09-09T01:29:01;24.50;71.40
32600;DHT22;19277;51.778;7.912;2022-09-09T01:32:00;24.50;71.40
32600;DHT22;19277;51.778;7.912;2022-09-09T01:34:36;24.50;71.50
32600;DHT22;19277;51.778;7.912;2022-09-09T01:37:04;24.50;71.50
32600;DHT22;19277;51.778;7.912;2022-09-09T01:39:32;24.50;71.50
32600;DHT22;19277;51.778;7.912;2022-09-09T01:41:58;24.60;71.60
32600;DHT22;19277;51.778;7.912;2022-09-09T01:44:25;24.50;71.50
32600;DHT22;19277;51.778;7.912;2022-09-09T01:46:51;24.60;71.40
32600;DHT22;19277;51.778;7.912;2022-09-09T01:49:18;24.60;71.70
32600;DHT22;19277;51.778;7.912;2022-09-09T01:51:48;24.60;71.70
32600;DHT22;19277;51.778;7.912;2022-09-09T01:54:14;24.60;71.60
32600;DHT22;19277;51.778;7.912;2022-09-09T01:56:51;24.60;71.60
32600;DHT22;19277;51.778;7.912;2022-09-09T02:04:40;24.70;71.60
32600;DHT22;19277;51.778;7.912;2022-09-09T02:10:17;24.70;71.50
32600;DHT22;19277;51.778;7.912;2022-09-09T02:12:48;24.70;71.50
32600;DHT22;19277;51.778;7.912;2022-09-09T02:15:42;24.70;71.50
32600;DHT22;19277;51.778;7.912;2022-09-09T02:18:10;24.70;71.50
32600;DHT22;19277;51.778;7.912;2022-09-09T02:20:39;24.70;71.40
32600;DHT22;19277;51.778;7.912;2022-09-09T02:23:06;24.70;71.40
32600;DHT22;19277;51.778;7.912;2022-09-09T02:25:34;24.70;71.40
32600;DHT22;19277;51.778;7.912;2022-09-09T02:28:01;24.70;71.40
32600;DHT22;19277;51.778;7.912;2022-09-09T02:30:29;24.70;71.50
32600;DHT22;19277;51.778;7.912;2022-09-09T02:32:58;24.70;71.40
32600;DHT22;19277;51.778;7.912;2022-09-09T02:35:25;24.70;71.40
32600;DHT22;19277;51.778;7.912;2022-09-09T02:37:55;24.70;71.40
32600;DHT22;19277;51.778;7.912;2022-09-09T02:40:22;24.70;71.50
32600;DHT22;19277;51.778;7.912;2022-09-09T02:42:48;24.80;71.60
32600;DHT22;19277;51.778;7.912;2022-09-09T02:45:19;24.80;71.60
32600;DHT22;19277;51.778;7.912;2022-09-09T02:48:14;24.80;71.60
32600;DHT22;19277;51.778;7.912;2022-09-09T02:51:08;24.80;71.50
32600;DHT22;19277;51.778;7.912;2022-09-09T02:56:27;24.80;71.40
32600;DHT22;19277;51.778;7.912;2022-09-09T02:58:55;24.80;71.40
32600;DHT22;19277;51.778;7.912;2022-09-09T03:01:21;24.80;71.40
32600;DHT22;19277;51.778;7.912;2022-09-09T03:03:46;24.80;71.50
32600;DHT22;19277;51.778;7.912;2022-09-09T03:06:12;24.80;71.50
32600;DHT22;19277;51.778;7.912;2022-09-09T03:08:38;24.90;71.70
32600;DHT22;19277;51.778;7.912;2022-09-09T03:11:03;24.90;71.80
32600;DHT22;19277;51.778;7.912;2022-09-09T03:13:29;24.90;71.90
32600;DHT22;19277;51.778;7.912;2022-09-09T03:15:55;24.90;72.00
32600;DHT22;19277;51.778;7.912;2022-09-09T03:18:20;24.90;72.00
32600;DHT22;19277;51.778;7.912;2022-09-09T03:20:47;24.90;72.10
32600;DHT22;19277;51.778;7.912;2022-09-09T03:23:16;24.90;72.10
32600;DHT22;19277;51.778;7.912;2022-09-09T03:25:48;24.90;72.10
32600;DHT22;19277;51.778;7.912;2022-09-09T03:28:14;24.90;72.20
32600;DHT22;19277;51.778;7.912;2022-09-09T03:30:40;24.90;72.30
32600;DHT22;19277;51.778;7.912;2022-09-09T03:33:06;24.90;72.40
32600;DHT22;19277;51.778;7.912;2022-09-09T03:35:31;24.90;72.50
32600;DHT22;19277;51.778;7.912;2022-09-09T03:37:57;24.90;72.50
32600;DHT22;19277;51.778;7.912;2022-09-09T03:40:22;24.90;72.60
32600;DHT22;19277;51.778;7.912;2022-09-09T03:42:48;24.90;72.60
32600;DHT22;19277;51.778;7.912;2022-09-09T03:45:14;24.90;72.60
32600;DHT22;19277;51.778;7.912;2022-09-09T03:47:40;24.90;72.70
32600;DHT22;19277;51.778;7.912;2022-09-09T03:50:07;25.00;72.70
32600;DHT22;19277;51.778;7.912;2022-09-09T03:52:37;25.00;72.80
32600;DHT22;19277;51.778;7.912;2022-09-09T03:55:03;25.00;72.90
32600;DHT22;19277;51.778;7.912;2022-09-09T03:57:28;25.00;73.00
32600;DHT22;19277;51.778;7.912;2022-09-09T03:59:55;24.90;73.00
32600;DHT22;19277;51.778;7.912;2022-09-09T04:02:21;24.90;73.00
32600;DHT22;19277;51.778;7.912;2022-09-09T04:04:46;25.00;73.50
32600;DHT22;19277;51.778;7.912;2022-09-09T04:07:12;25.00;73.40
32600;DHT22;19277;51.778;7.912;2022-09-09T04:09:38;25.00;73.40
32600;DHT22;19277;51.778;7.912;2022-09-09T04:12:04;25.00;73.40
32600;DHT22;19277;51.778;7.912;2022-09-09T04:14:30;25.00;73.30
32600;DHT22;19277;51.778;7.912;2022-09-09T04:16:55;25.00;73.40
32600;DHT22;19277;51.778;7.912;2022-09-09T04:19:23;25.00;73.50
32600;DHT22;19277;51.778;7.912;2022-09-09T04:21:49;25.00;73.60
32600;DHT22;19277;51.778;7.912;2022-09-09T04:24:17;25.00;73.60
32600;DHT22;19277;51.778;7.912;2022-09-09T04:26:43;25.00;73.70
32600;DHT22;19277;51.778;7.912;2022-09-09T04:29:09;25.00;73.60
32600;DHT22;19277;51.778;7.912;2022-09-09T04:31:35;25.00;73.50
32600;DHT22;19277;51.778;7.912;2022-09-09T04:34:01;25.00;73.70
32600;DHT22;19277;51.778;7.912;2022-09-09T04:36:31;25.00;73.70
32600;DHT22;19277;51.778;7.912;2022-09-09T04:38:57;25.00;73.70
32600;DHT22;19277;51.778;7.912;2022-09-09T04:41:23;25.00;73.60
32600;DHT22;19277;51.778;7.912;2022-09-09T04:43:49;25.00;73.50
32600;DHT22;19277;51.778;7.912;2022-09-09T04:46:15;25.00;73.40
32600;DHT22;19277;51.778;7.912;2022-09-09T04:48:43;25.00;73.40
32600;DHT22;19277;51.778;7.912;2022-09-09T04:51:12;25.00;73.30
32600;DHT22;19277;51.778;7.912;2022-09-09T04:53:38;25.10;73.40
32600;DHT22;19277;51.778;7.912;2022-09-09T04:56:08;25.00;73.20
32600;DHT22;19277;51.778;7.912;2022-09-09T04:58:35;25.00;73.10
32600;DHT22;19277;51.778;7.912;2022-09-09T05:01:09;25.00;73.00
32600;DHT22;19277;51.778;7.912;2022-09-09T05:03:35;25.00;72.90
32600;DHT22;19277;51.778;7.912;2022-09-09T05:06:11;25.10;72.90
32600;DHT22;19277;51.778;7.912;2022-09-09T05:08:38;25.00;72.70
32600;DHT22;19277;51.778;7.912;2022-09-09T05:11:26;25.00;72.70
32600;DHT22;19277;51.778;7.912;2022-09-09T05:13:52;25.00;72.60
32600;DHT22;19277;51.778;7.912;2022-09-09T05:16:18;25.00;72.50
32600;DHT22;19277;51.778;7.912;2022-09-09T05:18:44;25.00;72.40
32600;DHT22;19277;51.778;7.912;2022-09-09T05:21:12;25.00;72.50
32600;DHT22;19277;51.778;7.912;2022-09-09T05:23:38;25.00;72.60
32600;DHT22;19277;51.778;7.912;2022-09-09T05:26:04;25.00;72.50
32600;DHT22;19277;51.778;7.912;2022-09-09T05:28:30;25.10;72.60
32600;DHT22;19277;51.778;7.912;2022-09-09T05:31:01;25.10;72.70
32600;DHT22;19277;51.778;7.912;2022-09-09T05:33:29;25.10;72.70
32600;DHT22;19277;51.778;7.912;2022-09-09T05:35:59;25.10;72.80
32600;DHT22;19277;51.778;7.912;2022-09-09T05:38:25;25.10;72.80
32600;DHT22;19277;51.778;7.912;2022-09-09T05:40:52;25.10;72.80
32600;DHT22;19277;51.778;7.912;2022-09-09T05:43:19;25.10;72.70
32600;DHT22;19277;51.778;7.912;2022-09-09T05:45:58;25.10;72.70
32600;DHT22;19277;51.778;7.912;2022-09-09T05:48:28;25.10;72.80
32600;DHT22;19277;51.778;7.912;2022-09-09T05:50:53;25.10;72.90
32600;DHT22;19277;51.778;7.912;2022-09-09T05:53:19;25.20;73.00
32600;DHT22;19277;51.778;7.912;2022-09-09T05:55:45;25.20;73.00
32600;DHT22;19277;51.778;7.912;2022-09-09T05:58:11;25.20;72.80
32600;DHT22;19277;51.778;7.912;2022-09-09T06:00:36;25.20;72.70
32600;DHT22;19277;51.778;7.912;2022-09-09T06:03:03;25.20;72.60
32600;DHT22;19277;51.778;7.912;2022-09-09T06:05:29;25.20;72.50
32600;DHT22;19277;51.778;7.912;2022-09-09T06:07:55;25.20;72.50
32600;DHT22;19277;51.778;7.912;2022-09-09T06:10:21;25.20;72.40
32600;DHT22;19277;51.778;7.912;2022-09-09T06:12:47;25.20;72.40
32600;DHT22;19277;51.778;7.912;2022-09-09T06:15:12;25.20;72.30
32600;DHT22;19277;51.778;7.912;2022-09-09T06:17:38;25.20;72.80
32600;DHT22;19277;51.778;7.912;2022-09-09T06:20:04;25.20;72.40
32600;DHT22;19277;51.778;7.912;2022-09-09T06:22:30;25.20;72.10
32600;DHT22;19277;51.778;7.912;2022-09-09T06:24:56;25.20;72.00
32600;DHT22;19277;51.778;7.912;2022-09-09T06:27:22;25.20;72.00
32600;DHT22;19277;51.778;7.912;2022-09-09T06:29:47;25.20;71.90
32600;DHT22;19277;51.778;7.912;2022-09-09T06:32:13;25.20;72.30
32600;DHT22;19277;51.778;7.912;2022-09-09T06:34:39;25.20;72.40
32600;DHT22;19277;51.778;7.912;2022-09-09T06:37:05;25.20;72.40
32600;DHT22;19277;51.778;7.912;2022-09-09T06:39:32;25.20;72.50
32600;DHT22;19277;51.778;7.912;2022-09-09T06:41:57;25.20;72.90
32600;DHT22;19277;51.778;7.912;2022-09-09T06:44:24;25.10;72.90
32600;DHT22;19277;51.778;7.912;2022-09-09T06:46:52;25.10;73.20
32600;DHT22;19277;51.778;7.912;2022-09-09T06:49:18;25.10;73.40
32600;DHT22;19277;51.778;7.912;2022-09-09T06:51:44;25.10;73.60
32600;DHT22;19277;51.778;7.912;2022-09-09T06:54:11;25.10;73.80
32600;DHT22;19277;51.778;7.912;2022-09-09T06:56:41;25.00;74.00
32600;DHT22;19277;51.778;7.912;2022-09-09T06:59:08;25.00;74.00
32600;DHT22;19277;51.778;7.912;2022-09-09T07:01:36;25.00;74.10
32600;DHT22;19277;51.778;7.912;2022-09-09T07:04:03;25.00;74.00
32600;DHT22;19277;51.778;7.912;2022-09-09T07:06:34;25.00;73.90
32600;DHT22;19277;51.778;7.912;2022-09-09T07:09:02;25.00;73.80
32600;DHT22;19277;51.778;7.912;2022-09-09T07:11:33;25.00;73.70
32600;DHT22;19277;51.778;7.912;2022-09-09T07:14:00;25.00;73.60
32600;DHT22;19277;51.778;7.912;2022-09-09T07:16:26;25.00;73.50
32600;DHT22;19277;51.778;7.912;2022-09-09T07:18:56;25.00;73.40
32600;DHT22;19277;51.778;7.912;2022-09-09T07:21:24;25.00;73.30
32600;DHT22;19277;51.778;7.912;2022-09-09T07:23:51;25.10;73.30
32600;DHT22;19277;51.778;7.912;2022-09-09T07:26:19;25.00;73.10
32600;DHT22;19277;51.778;7.912;2022-09-09T07:28:46;25.10;73.00
32600;DHT22;19277;51.778;7.912;2022-09-09T07:31:16;25.10;72.90
32600;DHT22;19277;51.778;7.912;2022-09-09T07:33:43;25.10;72.80
32600;DHT22;19277;51.778;7.912;2022-09-09T07:36:14;25.10;72.70
32600;DHT22;19277;51.778;7.912;2022-09-09T07:38:48;25.10;72.60
32600;DHT22;19277;51.778;7.912;2022-09-09T07:41:21;25.10;72.50
32600;DHT22;19277;51.778;7.912;2022-09-09T07:43:48;25.10;72.50
32600;DHT22;19277;51.778;7.912;2022-09-09T07:46:15;25.20;72.40
32600;DHT22;19277;51.778;7.912;2022-09-09T07:48:45;25.10;72.30
32600;DHT22;19277;51.778;7.912;2022-09-09T07:51:14;25.20;72.30
32600;DHT22;19277;51.778;7.912;2022-09-09T07:53:47;25.20;72.20
32600;DHT22;19277;51.778;7.912;2022-09-09T07:56:16;25.20;72.10
32600;DHT22;19277;51.778;7.912;2022-09-09T07:58:44;25.20;72.00
32600;DHT22;19277;51.778;7.912;2022-09-09T08:01:17;25.20;72.00
32600;DHT22;19277;51.778;7.912;2022-09-09T08:03:44;25.20;71.90
32600;DHT22;19277;51.778;7.912;2022-09-09T08:06:11;25.20;71.90
32600;DHT22;19277;51.778;7.912;2022-09-09T08:08:38;25.20;71.80
32600;DHT22;19277;51.778;7.912;2022-09-09T08:11:11;25.20;71.80
32600;DHT22;19277;51.778;7.912;2022-09-09T08:13:38;25.20;71.70
32600;DHT22;19277;51.778;7.912;2022-09-09T08:16:13;25.20;71.70
32600;DHT22;19277;51.778;7.912;2022-09-09T08:18:39;25.20;71.70
32600;DHT22;19277;51.778;7.912;2022-09-09T08:21:09;25.20;71.70
32600;DHT22;19277;51.778;7.912;2022-09-09T08:23:38;25.20;71.60
32600;DHT22;19277;51.778;7.912;2022-09-09T08:26:06;25.20;71.70
32600;DHT22;19277;51.778;7.912;2022-09-09T08:28:32;25.20;71.70
32600;DHT22;19277;51.778;7.912;2022-09-09T08:31:13;25.20;71.70
32600;DHT22;19277;51.778;7.912;2022-09-09T08:33:40;25.20;71.70
32600;DHT22;19277;51.778;7.912;2022-09-09T08:36:08;25.20;71.60
32600;DHT22;19277;51.778;7.912;2022-09-09T08:38:34;25.20;72.10
32600;DHT22;19277;51.778;7.912;2022-09-09T08:41:30;25.20;71.60
32600;DHT22;19277;51.778;7.912;2022-09-09T08:44:05;25.20;71.50
32600;DHT22;19277;51.778;7.912;2022-09-09T08:46:41;25.20;71.50
32600;DHT22;19277;51.778;7.912;2022-09-09T08:51:52;25.20;71.40
32600;DHT22;19277;51.778;7.912;2022-09-09T08:54:20;25.20;71.40
32600;DHT22;19277;51.778;7.912;2022-09-09T08:56:47;25.30;71.50
32600;DHT22;19277;51.778;7.912;2022-09-09T08:59:16;25.20;71.40
32600;DHT22;19277;51.778;7.912;2022-09-09T09:02:20;25.30;71.40
32600;DHT22;19277;51.778;7.912;2022-09-09T09:04:59;25.30;71.40
32600;DHT22;19277;51.778;7.912;2022-09-09T09:07:41;25.20;71.30
32600;DHT22;19277;51.778;7.912;2022-09-09T09:12:58;25.30;71.40
32600;DHT22;19277;51.778;7.912;2022-09-09T09:15:36;25.30;71.40
32600;DHT22;19277;51.778;7.912;2022-09-09T09:18:03;25.30;71.40
32600;DHT22;19277;51.778;7.912;2022-09-09T09:23:25;25.30;71.40
32600;DHT22;19277;51.778;7.912;2022-09-09T09:25:56;25.30;71.40
32600;DHT22;19277;51.778;7.912;2022-09-09T09:28:28;25.30;71.40
32600;DHT22;19277;51.778;7.912;2022-09-09T09:31:03;25.30;71.50
32600;DHT22;19277;51.778;7.912;2022-09-09T09:36:08;25.30;71.40
32600;DHT22;19277;51.778;7.912;2022-09-09T09:38:35;25.30;71.40
32600;DHT22;19277;51.778;7.912;2022-09-09T09:41:01;25.30;71.40
32600;DHT22;19277;51.778;7.912;2022-09-09T09:43:29;25.30;71.40
32600;DHT22;19277;51.778;7.912;2022-09-09T09:45:55;25.30;71.40
32600;DHT22;19277;51.778;7.912;2022-09-09T09:48:24;25.30;71.40
32600;DHT22;19277;51.778;7.912;2022-09-09T09:51:02;25.30;71.40
32600;DHT22;19277;51.778;7.912;2022-09-09T09:53:30;25.30;71.50
32600;DHT22;19277;51.778;7.912;2022-09-09T09:58:26;25.30;71.50
32600;DHT22;19277;51.778;7.912;2022-09-09T10:00:53;25.30;71.50
32600;DHT22;19277;51.778;7.912;2022-09-09T10:03:33;25.30;71.50
32600;DHT22;19277;51.778;7.912;2022-09-09T10:06:03;25.30;71.50
32600;DHT22;19277;51.778;7.912;2022-09-09T10:08:29;25.30;71.50
32600;DHT22;19277;51.778;7.912;2022-09-09T10:13:38;25.30;71.50
32600;DHT22;19277;51.778;7.912;2022-09-09T10:16:24;25.30;71.50
32600;DHT22;19277;51.778;7.912;2022-09-09T10:24:25;25.30;71.50
32600;DHT22;19277;51.778;7.912;2022-09-09T10:35:25;25.30;71.60
32600;DHT22;19277;51.778;7.912;2022-09-09T10:54:34;25.30;71.60
32600;DHT22;19277;51.778;7.912;2022-09-09T10:57:07;25.40;71.80
32600;DHT22;19277;51.778;7.912;2022-09-09T10:59:40;25.30;71.60
32600;DHT22;19277;51.778;7.912;2022-09-09T11:02:23;25.40;71.70
32600;DHT22;19277;51.778;7.912;2022-09-09T11:05:05;25.40;71.70
32600;DHT22;19277;51.778;7.912;2022-09-09T11:16:49;25.40;71.60
32600;DHT22;19277;51.778;7.912;2022-09-09T11:21:49;25.40;71.60
32600;DHT22;19277;51.778;7.912;2022-09-09T11:24:37;25.40;71.60
32600;DHT22;19277;51.778;7.912;2022-09-09T11:27:15;25.40;71.50
32600;DHT22;19277;51.778;7.912;2022-09-09T11:30:22;25.40;71.60
32600;DHT22;19277;51.778;7.912;2022-09-09T11:41:11;25.40;71.80
32600;DHT22;19277;51.778;7.912;2022-09-09T11:43:43;25.50;71.90
32600;DHT22;19277;51.778;7.912;2022-09-09T11:46:10;25.50;71.90
32600;DHT22;19277;51.778;7.912;2022-09-09T11:48:39;25.50;71.90
32600;DHT22;19277;51.778;7.912;2022-09-09T11:53:51;25.50;71.90
32600;DHT22;19277;51.778;7.912;2022-09-09T11:56:53;25.50;71.90
32600;DHT22;19277;51.778;7.912;2022-09-09T11:59:19;25.50;71.90
32600;DHT22;19277;51.778;7.912;2022-09-09T12:01:48;25.50;71.90
32600;DHT22;19277;51.778;7.912;2022-09-09T12:04:32;25.50;71.80
32600;DHT22;19277;51.778;7.912;2022-09-09T12:07:02;25.50;71.80
32600;DHT22;19277;51.778;7.912;2022-09-09T12:09:50;25.50;71.80
32600;DHT22;19277;51.778;7.912;2022-09-09T12:12:26;25.50;71.80
32600;DHT22;19277;51.778;7.912;2022-09-09T12:15:00;25.50;71.80
32600;DHT22;19277;51.778;7.912;2022-09-09T12:17:28;25.50;71.80
32600;DHT22;19277;51.778;7.912;2022-09-09T12:28:09;25.50;71.70
32600;DHT22;19277;51.778;7.912;2022-09-09T12:30:54;25.50;71.60
32600;DHT22;19277;51.778;7.912;2022-09-09T12:33:22;25.50;71.50
32600;DHT22;19277;51.778;7.912;2022-09-09T12:35:56;25.50;71.50
32600;DHT22;19277;51.778;7.912;2022-09-09T12:38:34;25.50;71.50
32600;DHT22;19277;51.778;7.912;2022-09-09T12:41:01;25.50;71.50
32600;DHT22;19277;51.778;7.912;2022-09-09T12:43:27;25.50;71.40
32600;DHT22;19277;51.778;7.912;2022-09-09T12:46:08;25.50;71.40
32600;DHT22;19277;51.778;7.912;2022-09-09T12:48:39;25.50;71.40
32600;DHT22;19277;51.778;7.912;2022-09-09T12:51:18;25.50;71.30
32600;DHT22;19277;51.778;7.912;2022-09-09T12:53:44;25.50;71.30
32600;DHT22;19277;51.778;7.912;2022-09-09T12:56:19;25.50;71.30
32600;DHT22;19277;51.778;7.912;2022-09-09T12:58:46;25.50;71.20
32600;DHT22;19277;51.778;7.912;2022-09-09T13:01:25;25.50;71.20
32600;DHT22;19277;51.778;7.912;2022-09-09T13:03:52;25.50;71.20
32600;DHT22;19277;51.778;7.912;2022-09-09T13:06:24;25.50;71.60
32600;DHT22;19277;51.778;7.912;2022-09-09T13:08:51;25.50;71.10
32600;DHT22;19277;51.778;7.912;2022-09-09T13:11:21;25.50;71.10
32600;DHT22;19277;51.778;7.912;2022-09-09T13:13:56;25.50;71.00
32600;DHT22;19277;51.778;7.912;2022-09-09T13:16:34;25.50;71.00
32600;DHT22;19277;51.778;7.912;2022-09-09T13:19:02;25.50;70.90
32600;DHT22;19277;51.778;7.912;2022-09-09T13:21:37;25.50;70.90
32600;DHT22;19277;51.778;7.912;2022-09-09T13:24:05;25.50;70.80
32600;DHT22;19277;51.778;7.912;2022-09-09T13:26:33;25.50;70.90
32600;DHT22;19277;51.778;7.912;2022-09-09T13:29:18;25.50;70.80
32600;DHT22;19277;51.778;7.912;2022-09-09T13:31:44;25.50;70.80
32600;DHT22;19277;51.778;7.912;2022-09-09T13:34:24;25.50;70.70
32600;DHT22;19277;51.778;7.912;2022-09-09T13:36:54;25.50;70.70
32600;DHT22;19277;51.778;7.912;2022-09-09T13:39:21;25.50;70.70
32600;DHT22;19277;51.778;7.912;2022-09-09T13:41:47;25.50;70.60
32600;DHT22;19277;51.778;7.912;2022-09-09T13:44:27;25.50;70.60
32600;DHT22;19277;51.778;7.912;2022-09-09T13:49:41;25.50;70.60
32600;DHT22;19277;51.778;7.912;2022-09-09T13:52:15;25.50;70.60
32600;DHT22;19277;51.778;7.912;2022-09-09T13:54:42;25.50;70.50
32600;DHT22;19277;51.778;7.912;2022-09-09T13:57:16;25.50;70.50
32600;DHT22;19277;51.778;7.912;2022-09-09T13:59:44;25.50;70.40
32600;DHT22;19277;51.778;7.912;2022-09-09T14:02:09;25.50;70.30
32600;DHT22;19277;51.778;7.912;2022-09-09T14:04:35;25.50;70.30
32600;DHT22;19277;51.778;7.912;2022-09-09T14:07:01;25.50;70.30
32600;DHT22;19277;51.778;7.912;2022-09-09T14:09:27;25.50;70.30
32600;DHT22;19277;51.778;7.912;2022-09-09T14:11:53;25.50;70.30
32600;DHT22;19277;51.778;7.912;2022-09-09T14:14:20;25.60;70.40
32600;DHT22;19277;51.778;7.912;2022-09-09T14:16:46;25.60;70.40
32600;DHT22;19277;51.778;7.912;2022-09-09T14:19:12;25.60;70.30
32600;DHT22;19277;51.778;7.912;2022-09-09T14:21:38;25.60;70.30
32600;DHT22;19277;51.778;7.912;2022-09-09T14:24:04;25.50;70.20
32600;DHT22;19277;51.778;7.912;2022-09-09T14:26:30;25.60;70.30
32600;DHT22;19277;51.778;7.912;2022-09-09T14:28:55;25.60;70.20
32600;DHT22;19277;51.778;7.912;2022-09-09T14:31:22;25.60;70.20
32600;DHT22;19277;51.778;7.912;2022-09-09T14:33:48;25.60;70.20
32600;DHT22;19277;51.778;7.912;2022-09-09T14:36:14;25.60;70.20
32600;DHT22;19277;51.778;7.912;2022-09-09T14:38:40;25.60;70.20
32600;DHT22;19277;51.778;7.912;2022-09-09T14:41:11;25.60;70.20
32600;DHT22;19277;51.778;7.912;2022-09-09T14:43:40;25.60;70.20
32600;DHT22;19277;51.778;7.912;2022-09-09T14:46:06;25.60;70.10
32600;DHT22;19277;51.778;7.912;2022-09-09T14:48:32;25.60;70.10
32600;DHT22;19277;51.778;7.912;2022-09-09T14:51:05;25.60;70.10
32600;DHT22;19277;51.778;7.912;2022-09-09T14:53:31;25.60;70.10
32600;DHT22;19277;51.778;7.912;2022-09-09T14:56:10;25.60;70.10
32600;DHT22;19277;51.778;7.912;2022-09-09T14:58:37;25.60;70.00
32600;DHT22;19277;51.778;7.912;2022-09-09T15:01:08;25.60;70.00
32600;DHT22;19277;51.778;7.912;2022-09-09T15:03:38;25.60;70.00
32600;DHT22;19277;51.778;7.912;2022-09-09T15:06:06;25.60;70.00
32600;DHT22;19277;51.778;7.912;2022-09-09T15:08:34;25.60;70.20
32600;DHT22;19277;51.778;7.912;2022-09-09T15:11:02;25.60;70.30
32600;DHT22;19277;51.778;7.912;2022-09-09T15:13:27;25.60;70.30
32600;DHT22;19277;51.778;7.912;2022-09-09T15:15:53;25.60;70.40
32600;DHT22;19277;51.778;7.912;2022-09-09T15:18:20;25.60;70.50
32600;DHT22;19277;51.778;7.912;2022-09-09T15:20:46;25.70;70.60
32600;DHT22;19277;51.778;7.912;2022-09-09T15:23:12;25.60;70.50
32600;DHT22;19277;51.778;7.912;2022-09-09T15:25:38;25.60;70.50
32600;DHT22;19277;51.778;7.912;2022-09-09T15:28:03;25.60;70.50
32600;DHT22;19277;51.778;7.912;2022-09-09T15:30:29;25.60;70.50
32600;DHT22;19277;51.778;7.912;2022-09-09T15:32:54;25.60;70.50
32600;DHT22;19277;51.778;7.912;2022-09-09T15:35:20;25.70;70.50
32600;DHT22;19277;51.778;7.912;2022-09-09T15:37:46;25.70;70.50
32600;DHT22;19277;51.778;7.912;2022-09-09T15:40:11;25.70;70.50
32600;DHT22;19277;51.778;7.912;2022-09-09T15:42:37;25.70;70.40
32600;DHT22;19277;51.778;7.912;2022-09-09T15:45:03;25.70;70.30
32600;DHT22;19277;51.778;7.912;2022-09-09T15:47:30;25.70;70.30
32600;DHT22;19277;51.778;7.912;2022-09-09T15:49:55;25.70;70.30
32600;DHT22;19277;51.778;7.912;2022-09-09T15:52:21;25.70;70.30
32600;DHT22;19277;51.778;7.912;2022-09-09T15:54:47;25.70;70.30
32600;DHT22;19277;51.778;7.912;2022-09-09T15:57:13;25.70;70.20
32600;DHT22;19277;51.778;7.912;2022-09-09T15:59:39;25.70;70.20
32600;DHT22;19277;51.778;7.912;2022-09-09T16:02:05;25.70;70.70
32600;DHT22;19277;51.778;7.912;2022-09-09T16:04:31;25.60;70.10
32600;DHT22;19277;51.778;7.912;2022-09-09T16:07:04;25.70;70.20
32600;DHT22;19277;51.778;7.912;2022-09-09T16:09:31;25.70;70.70
32600;DHT22;19277;51.778;7.912;2022-09-09T16:11:58;25.70;70.20
32600;DHT22;19277;51.778;7.912;2022-09-09T16:14:24;25.60;70.10
32600;DHT22;19277;51.778;7.912;2022-09-09T16:16:51;25.70;70.20
32600;DHT22;19277;51.778;7.912;2022-09-09T16:19:16;25.60;70.10
32600;DHT22;19277;51.778;7.912;2022-09-09T16:21:44;25.60;70.10
32600;DHT22;19277;51.778;7.912;2022-09-09T16:24:13;25.60;70.10
32600;DHT22;19277;51.778;7.912;2022-09-09T16:26:40;25.60;70.20
32600;DHT22;19277;51.778;7.912;2022-09-09T16:29:08;25.60;70.20
32600;DHT22;19277;51.778;7.912;2022-09-09T16:31:34;25.60;70.20
32600;DHT22;19277;51.778;7.912;2022-09-09T16:34:00;25.60;70.20
32600;DHT22;19277;51.778;7.912;2022-09-09T16:36:28;25.60;70.20
32600;DHT22;19277;51.778;7.912;2022-09-09T16:38:57;25.60;70.10
32600;DHT22;19277;51.778;7.912;2022-09-09T16:41:23;25.60;70.10
32600;DHT22;19277;51.778;7.912;2022-09-09T16:43:57;25.60;70.10
32600;DHT22;19277;51.778;7.912;2022-09-09T16:46:24;25.60;70.10
32600;DHT22;19277;51.778;7.912;2022-09-09T16:48:50;25.60;70.10
32600;DHT22;19277;51.778;7.912;2022-09-09T16:51:25;25.60;70.10
32600;DHT22;19277;51.778;7.912;2022-09-09T16:53:52;25.60;70.10
32600;DHT22;19277;51.778;7.912;2022-09-09T16:56:20;25.60;70.10
32600;DHT22;19277;51.778;7.912;2022-09-09T16:59:01;25.60;70.10
32600;DHT22;19277;51.778;7.912;2022-09-09T17:01:29;25.60;70.10
32600;DHT22;19277;51.778;7.912;2022-09-09T17:03:56;25.60;70.10
32600;DHT22;19277;51.778;7.912;2022-09-09T17:06:22;25.60;70.10
32600;DHT22;19277;51.778;7.912;2022-09-09T17:08:57;25.60;70.10
32600;DHT22;19277;51.778;7.912;2022-09-09T17:11:23;25.60;70.10
32600;DHT22;19277;51.778;7.912;2022-09-09T17:13:50;25.60;70.10
32600;DHT22;19277;51.778;7.912;2022-09-09T17:16:17;25.60;70.10
32600;DHT22;19277;51.778;7.912;2022-09-09T17:18:43;25.60;70.10
32600;DHT22;19277;51.778;7.912;2022-09-09T17:21:16;25.60;70.10
32600;DHT22;19277;51.778;7.912;2022-09-09T17:23:42;25.60;70.10
32600;DHT22;19277;51.778;7.912;2022-09-09T17:26:10;25.60;70.10
32600;DHT22;19277;51.778;7.912;2022-09-09T17:28:38;25.60;70.10
32600;DHT22;19277;51.778;7.912;2022-09-09T17:31:09;25.60;70.10
32600;DHT22;19277;51.778;7.912;2022-09-09T17:33:37;25.60;70.10
32600;DHT22;19277;51.778;7.912;2022-09-09T17:36:14;25.60;70.10